sensor_id;sensor_type;location;lat;lon;timestamp;P1;durP1;ratioP1;P2;durP2;ratioP2
11086;SDS011;5597;47.588;9.642;2023-04-10T00:01:31;5.90;;;5.10;;
11086;SDS011;5597;47.588;9.642;2023-04-10T00:04:00;6.63;;;5.83;;
11086;SDS011;5597;47.588;9.642;2023-04-10T00:06:26;7.43;;;5.70;;
11086;SDS011;5597;47.588;9.642;2023-04-10T00:08:52;6.40;;;5.40;;
11086;SDS011;5597;47.588;9.642;2023-04-10T00:11:18;7.60;;;5.90;;
11086;SDS011;5597;47.588;9.642;2023-04-10T00:13:43;6.87;;;5.77;;
11086;SDS011;5597;47.588;9.642;2023-04-10T00:16:09;5.93;;;5.33;;
11086;SDS011;5597;47.588;9.642;2023-04-10T00:18:35;7.10;;;5.97;;
11086;SDS011;5597;47.588;9.642;2023-04-10T00:21:03;6.60;;;5.30;;
11086;SDS011;5597;47.588;9.642;2023-04-10T00:23:30;6.40;;;5.40;;
11086;SDS011;5597;47.588;9.642;2023-04-10T00:25:59;8.00;;;6.00;;
11086;SDS011;5597;47.588;9.642;2023-04-10T00:28:25;8.03;;;5.53;;
11086;SDS011;5597;47.588;9.642;2023-04-10T00:30:51;7.37;;;6.30;;
11086;SDS011;5597;47.588;9.642;2023-04-10T00:33:16;6.97;;;5.73;;
11086;SDS011;5597;47.588;9.642;2023-04-10T00:35:42;6.77;;;5.90;;
11086;SDS011;5597;47.588;9.642;2023-04-10T00:38:08;6.87;;;5.90;;
11086;SDS011;5597;47.588;9.642;2023-04-10T00:40:33;7.07;;;5.53;;
11086;SDS011;5597;47.588;9.642;2023-04-10T00:42:59;7.60;;;6.20;;
11086;SDS011;5597;47.588;9.642;2023-04-10T00:45:25;6.53;;;5.47;;
11086;SDS011;5597;47.588;9.642;2023-04-10T00:47:51;6.00;;;5.13;;
11086;SDS011;5597;47.588;9.642;2023-04-10T00:50:18;6.90;;;5.50;;
11086;SDS011;5597;47.588;9.642;2023-04-10T00:52:44;7.37;;;5.47;;
11086;SDS011;5597;47.588;9.642;2023-04-10T00:55:11;6.03;;;5.20;;
11086;SDS011;5597;47.588;9.642;2023-04-10T00:57:36;6.40;;;5.30;;
11086;SDS011;5597;47.588;9.642;2023-04-10T01:00:03;6.13;;;5.27;;
11086;SDS011;5597;47.588;9.642;2023-04-10T01:02:29;6.43;;;5.57;;
11086;SDS011;5597;47.588;9.642;2023-04-10T01:04:56;5.87;;;5.10;;
11086;SDS011;5597;47.588;9.642;2023-04-10T01:10:04;6.23;;;5.17;;
11086;SDS011;5597;47.588;9.642;2023-04-10T01:12:45;6.73;;;5.33;;
11086;SDS011;5597;47.588;9.642;2023-04-10T01:15:22;7.17;;;5.53;;
11086;SDS011;5597;47.588;9.642;2023-04-10T01:20:26;7.10;;;5.80;;
11086;SDS011;5597;47.588;9.642;2023-04-10T01:23:05;6.80;;;5.67;;
11086;SDS011;5597;47.588;9.642;2023-04-10T01:31:04;6.40;;;4.77;;
11086;SDS011;5597;47.588;9.642;2023-04-10T01:33:45;6.10;;;4.90;;
11086;SDS011;5597;47.588;9.642;2023-04-10T01:36:24;6.27;;;4.93;;
11086;SDS011;5597;47.588;9.642;2023-04-10T01:38:55;6.07;;;4.57;;
11086;SDS011;5597;47.588;9.642;2023-04-10T01:41:22;6.70;;;5.47;;
11086;SDS011;5597;47.588;9.642;2023-04-10T01:43:49;6.73;;;5.07;;
11086;SDS011;5597;47.588;9.642;2023-04-10T01:46:17;6.03;;;5.30;;
11086;SDS011;5597;47.588;9.642;2023-04-10T01:48:45;6.00;;;4.97;;
11086;SDS011;5597;47.588;9.642;2023-04-10T01:51:11;6.23;;;4.80;;
11086;SDS011;5597;47.588;9.642;2023-04-10T01:53:38;6.70;;;5.40;;
11086;SDS011;5597;47.588;9.642;2023-04-10T01:56:06;6.43;;;5.40;;
11086;SDS011;5597;47.588;9.642;2023-04-10T01:58:33;6.70;;;5.53;;
11086;SDS011;5597;47.588;9.642;2023-04-10T02:01:01;6.53;;;5.27;;
11086;SDS011;5597;47.588;9.642;2023-04-10T02:03:27;6.40;;;5.23;;
11086;SDS011;5597;47.588;9.642;2023-04-10T02:11:37;6.33;;;5.00;;
11086;SDS011;5597;47.588;9.642;2023-04-10T02:14:11;7.13;;;5.60;;
11086;SDS011;5597;47.588;9.642;2023-04-10T02:16:42;8.13;;;5.67;;
11086;SDS011;5597;47.588;9.642;2023-04-10T02:19:09;6.30;;;5.43;;
11086;SDS011;5597;47.588;9.642;2023-04-10T02:21:35;6.10;;;5.20;;
11086;SDS011;5597;47.588;9.642;2023-04-10T02:24:01;6.20;;;5.23;;
11086;SDS011;5597;47.588;9.642;2023-04-10T02:26:27;7.50;;;5.10;;
11086;SDS011;5597;47.588;9.642;2023-04-10T02:28:53;8.63;;;5.53;;
11086;SDS011;5597;47.588;9.642;2023-04-10T02:31:19;6.27;;;5.07;;
11086;SDS011;5597;47.588;9.642;2023-04-10T02:33:44;6.47;;;5.17;;
11086;SDS011;5597;47.588;9.642;2023-04-10T02:36:10;5.53;;;4.80;;
11086;SDS011;5597;47.588;9.642;2023-04-10T02:38:36;6.87;;;5.60;;
11086;SDS011;5597;47.588;9.642;2023-04-10T02:41:02;6.23;;;5.13;;
11086;SDS011;5597;47.588;9.642;2023-04-10T02:43:27;6.33;;;5.03;;
11086;SDS011;5597;47.588;9.642;2023-04-10T02:45:53;6.70;;;5.30;;
11086;SDS011;5597;47.588;9.642;2023-04-10T02:48:19;6.07;;;5.00;;
11086;SDS011;5597;47.588;9.642;2023-04-10T02:50:46;6.60;;;5.10;;
11086;SDS011;5597;47.588;9.642;2023-04-10T02:53:14;5.70;;;4.83;;
11086;SDS011;5597;47.588;9.642;2023-04-10T02:55:40;6.60;;;5.43;;
11086;SDS011;5597;47.588;9.642;2023-04-10T02:58:06;7.73;;;5.57;;
11086;SDS011;5597;47.588;9.642;2023-04-10T03:00:32;6.50;;;5.30;;
11086;SDS011;5597;47.588;9.642;2023-04-10T03:02:57;6.03;;;4.90;;
11086;SDS011;5597;47.588;9.642;2023-04-10T03:05:23;7.50;;;4.90;;
11086;SDS011;5597;47.588;9.642;2023-04-10T03:07:48;6.40;;;5.00;;
11086;SDS011;5597;47.588;9.642;2023-04-10T03:10:14;6.53;;;4.90;;
11086;SDS011;5597;47.588;9.642;2023-04-10T03:12:39;7.10;;;5.37;;
11086;SDS011;5597;47.588;9.642;2023-04-10T03:15:05;6.23;;;5.07;;
11086;SDS011;5597;47.588;9.642;2023-04-10T03:17:31;6.93;;;5.40;;
11086;SDS011;5597;47.588;9.642;2023-04-10T03:19:57;6.23;;;4.70;;
11086;SDS011;5597;47.588;9.642;2023-04-10T03:22:23;5.83;;;4.97;;
11086;SDS011;5597;47.588;9.642;2023-04-10T03:24:48;6.63;;;4.90;;
11086;SDS011;5597;47.588;9.642;2023-04-10T03:27:15;6.77;;;5.37;;
11086;SDS011;5597;47.588;9.642;2023-04-10T03:29:41;5.67;;;4.67;;
11086;SDS011;5597;47.588;9.642;2023-04-10T03:32:07;6.27;;;4.93;;
11086;SDS011;5597;47.588;9.642;2023-04-10T03:34:33;6.50;;;5.53;;
11086;SDS011;5597;47.588;9.642;2023-04-10T03:36:58;7.47;;;5.47;;
11086;SDS011;5597;47.588;9.642;2023-04-10T03:39:24;7.10;;;5.53;;
11086;SDS011;5597;47.588;9.642;2023-04-10T03:41:50;5.40;;;4.73;;
11086;SDS011;5597;47.588;9.642;2023-04-10T03:44:15;6.40;;;5.07;;
11086;SDS011;5597;47.588;9.642;2023-04-10T03:46:41;6.43;;;5.13;;
11086;SDS011;5597;47.588;9.642;2023-04-10T03:49:07;6.73;;;5.13;;
11086;SDS011;5597;47.588;9.642;2023-04-10T03:51:32;6.97;;;5.07;;
11086;SDS011;5597;47.588;9.642;2023-04-10T03:53:58;5.93;;;4.93;;
11086;SDS011;5597;47.588;9.642;2023-04-10T03:56:23;7.13;;;5.83;;
11086;SDS011;5597;47.588;9.642;2023-04-10T03:58:49;6.63;;;5.07;;
11086;SDS011;5597;47.588;9.642;2023-04-10T04:01:15;6.93;;;5.37;;
11086;SDS011;5597;47.588;9.642;2023-04-10T04:03:40;6.97;;;5.43;;
11086;SDS011;5597;47.588;9.642;2023-04-10T04:06:06;6.60;;;5.30;;
11086;SDS011;5597;47.588;9.642;2023-04-10T04:08:31;7.00;;;5.57;;
11086;SDS011;5597;47.588;9.642;2023-04-10T04:11:00;8.10;;;6.13;;
11086;SDS011;5597;47.588;9.642;2023-04-10T04:13:25;6.53;;;5.30;;
11086;SDS011;5597;47.588;9.642;2023-04-10T04:15:51;6.53;;;5.17;;
11086;SDS011;5597;47.588;9.642;2023-04-10T04:18:17;6.90;;;5.43;;
11086;SDS011;5597;47.588;9.642;2023-04-10T04:20:42;6.67;;;5.37;;
11086;SDS011;5597;47.588;9.642;2023-04-10T04:23:08;6.43;;;5.40;;
11086;SDS011;5597;47.588;9.642;2023-04-10T04:25:33;6.87;;;5.23;;
11086;SDS011;5597;47.588;9.642;2023-04-10T04:27:59;6.50;;;5.53;;
11086;SDS011;5597;47.588;9.642;2023-04-10T04:30:25;6.70;;;5.23;;
11086;SDS011;5597;47.588;9.642;2023-04-10T04:32:50;6.97;;;5.50;;
11086;SDS011;5597;47.588;9.642;2023-04-10T04:35:16;6.43;;;5.40;;
11086;SDS011;5597;47.588;9.642;2023-04-10T04:37:42;6.67;;;5.17;;
11086;SDS011;5597;47.588;9.642;2023-04-10T04:40:07;6.67;;;5.50;;
11086;SDS011;5597;47.588;9.642;2023-04-10T04:42:33;7.60;;;5.80;;
11086;SDS011;5597;47.588;9.642;2023-04-10T04:44:59;5.97;;;4.70;;
11086;SDS011;5597;47.588;9.642;2023-04-10T04:47:25;6.53;;;4.90;;
11086;SDS011;5597;47.588;9.642;2023-04-10T04:49:50;7.27;;;5.33;;
11086;SDS011;5597;47.588;9.642;2023-04-10T04:52:16;7.33;;;5.20;;
11086;SDS011;5597;47.588;9.642;2023-04-10T04:54:41;6.47;;;5.00;;
11086;SDS011;5597;47.588;9.642;2023-04-10T04:57:07;7.23;;;5.97;;
11086;SDS011;5597;47.588;9.642;2023-04-10T04:59:33;6.80;;;5.00;;
11086;SDS011;5597;47.588;9.642;2023-04-10T05:01:59;6.50;;;4.90;;
11086;SDS011;5597;47.588;9.642;2023-04-10T05:04:24;7.00;;;5.00;;
11086;SDS011;5597;47.588;9.642;2023-04-10T05:06:50;7.40;;;5.33;;
11086;SDS011;5597;47.588;9.642;2023-04-10T05:09:16;6.17;;;4.93;;
11086;SDS011;5597;47.588;9.642;2023-04-10T05:11:41;6.97;;;5.13;;
11086;SDS011;5597;47.588;9.642;2023-04-10T05:14:07;8.40;;;5.37;;
11086;SDS011;5597;47.588;9.642;2023-04-10T05:16:32;6.27;;;5.20;;
11086;SDS011;5597;47.588;9.642;2023-04-10T05:18:58;7.23;;;5.40;;
11086;SDS011;5597;47.588;9.642;2023-04-10T05:21:23;7.20;;;5.10;;
11086;SDS011;5597;47.588;9.642;2023-04-10T05:23:49;5.77;;;4.77;;
11086;SDS011;5597;47.588;9.642;2023-04-10T05:26:15;6.33;;;5.17;;
11086;SDS011;5597;47.588;9.642;2023-04-10T05:28:41;6.20;;;4.93;;
11086;SDS011;5597;47.588;9.642;2023-04-10T05:31:06;7.00;;;4.93;;
11086;SDS011;5597;47.588;9.642;2023-04-10T05:33:32;6.33;;;5.20;;
11086;SDS011;5597;47.588;9.642;2023-04-10T05:35:57;8.47;;;5.93;;
11086;SDS011;5597;47.588;9.642;2023-04-10T05:38:23;5.80;;;4.80;;
11086;SDS011;5597;47.588;9.642;2023-04-10T05:40:49;5.87;;;4.83;;
11086;SDS011;5597;47.588;9.642;2023-04-10T05:43:14;7.13;;;5.10;;
11086;SDS011;5597;47.588;9.642;2023-04-10T05:45:42;5.93;;;5.17;;
11086;SDS011;5597;47.588;9.642;2023-04-10T05:48:09;6.30;;;4.80;;
11086;SDS011;5597;47.588;9.642;2023-04-10T05:50:34;5.60;;;4.40;;
11086;SDS011;5597;47.588;9.642;2023-04-10T05:53:00;5.40;;;4.47;;
11086;SDS011;5597;47.588;9.642;2023-04-10T05:55:25;5.13;;;4.43;;
11086;SDS011;5597;47.588;9.642;2023-04-10T05:57:51;6.17;;;4.60;;
11086;SDS011;5597;47.588;9.642;2023-04-10T06:00:17;5.30;;;4.47;;
11086;SDS011;5597;47.588;9.642;2023-04-10T06:02:43;5.67;;;4.67;;
11086;SDS011;5597;47.588;9.642;2023-04-10T06:05:09;4.53;;;3.67;;
11086;SDS011;5597;47.588;9.642;2023-04-10T06:07:35;4.93;;;4.17;;
11086;SDS011;5597;47.588;9.642;2023-04-10T06:10:01;4.03;;;3.47;;
11086;SDS011;5597;47.588;9.642;2023-04-10T06:12:26;3.60;;;3.20;;
11086;SDS011;5597;47.588;9.642;2023-04-10T06:14:52;4.47;;;3.60;;
11086;SDS011;5597;47.588;9.642;2023-04-10T06:17:17;3.90;;;3.30;;
11086;SDS011;5597;47.588;9.642;2023-04-10T06:19:45;4.53;;;3.00;;
11086;SDS011;5597;47.588;9.642;2023-04-10T06:22:10;3.60;;;3.30;;
11086;SDS011;5597;47.588;9.642;2023-04-10T06:24:36;3.13;;;2.73;;
11086;SDS011;5597;47.588;9.642;2023-04-10T06:27:01;3.93;;;3.13;;
11086;SDS011;5597;47.588;9.642;2023-04-10T06:29:27;3.20;;;2.90;;
11086;SDS011;5597;47.588;9.642;2023-04-10T06:31:52;3.10;;;2.80;;
11086;SDS011;5597;47.588;9.642;2023-04-10T06:34:18;2.73;;;2.47;;
11086;SDS011;5597;47.588;9.642;2023-04-10T06:36:44;2.77;;;2.27;;
11086;SDS011;5597;47.588;9.642;2023-04-10T06:39:09;2.47;;;2.07;;
11086;SDS011;5597;47.588;9.642;2023-04-10T06:41:35;2.40;;;2.20;;
11086;SDS011;5597;47.588;9.642;2023-04-10T06:44:00;1.70;;;1.60;;
11086;SDS011;5597;47.588;9.642;2023-04-10T06:46:26;2.73;;;2.00;;
11086;SDS011;5597;47.588;9.642;2023-04-10T06:48:52;3.20;;;2.10;;
11086;SDS011;5597;47.588;9.642;2023-04-10T06:51:17;2.27;;;1.90;;
11086;SDS011;5597;47.588;9.642;2023-04-10T06:53:43;1.97;;;1.80;;
11086;SDS011;5597;47.588;9.642;2023-04-10T06:56:08;2.07;;;1.80;;
11086;SDS011;5597;47.588;9.642;2023-04-10T06:58:34;1.77;;;1.67;;
11086;SDS011;5597;47.588;9.642;2023-04-10T07:01:00;1.60;;;1.47;;
11086;SDS011;5597;47.588;9.642;2023-04-10T07:03:28;2.90;;;1.73;;
11086;SDS011;5597;47.588;9.642;2023-04-10T07:05:54;2.07;;;1.87;;
11086;SDS011;5597;47.588;9.642;2023-04-10T07:08:20;2.90;;;1.80;;
11086;SDS011;5597;47.588;9.642;2023-04-10T07:10:46;1.43;;;1.33;;
11086;SDS011;5597;47.588;9.642;2023-04-10T07:13:12;2.13;;;1.67;;
11086;SDS011;5597;47.588;9.642;2023-04-10T07:15:37;1.87;;;1.70;;
11086;SDS011;5597;47.588;9.642;2023-04-10T07:18:03;2.47;;;1.80;;
11086;SDS011;5597;47.588;9.642;2023-04-10T07:20:30;1.80;;;1.63;;
11086;SDS011;5597;47.588;9.642;2023-04-10T07:22:56;1.70;;;1.60;;
11086;SDS011;5597;47.588;9.642;2023-04-10T07:25:21;2.10;;;1.90;;
11086;SDS011;5597;47.588;9.642;2023-04-10T07:27:47;1.90;;;1.70;;
11086;SDS011;5597;47.588;9.642;2023-04-10T07:30:13;1.50;;;1.40;;
11086;SDS011;5597;47.588;9.642;2023-04-10T07:32:38;1.60;;;1.50;;
11086;SDS011;5597;47.588;9.642;2023-04-10T07:35:05;1.90;;;1.57;;
11086;SDS011;5597;47.588;9.642;2023-04-10T07:37:31;1.87;;;1.73;;
11086;SDS011;5597;47.588;9.642;2023-04-10T07:39:57;1.60;;;1.50;;
11086;SDS011;5597;47.588;9.642;2023-04-10T07:42:22;1.80;;;1.70;;
11086;SDS011;5597;47.588;9.642;2023-04-10T07:44:48;1.73;;;1.53;;
11086;SDS011;5597;47.588;9.642;2023-04-10T07:47:14;2.10;;;1.90;;
11086;SDS011;5597;47.588;9.642;2023-04-10T07:49:39;2.27;;;2.00;;
11086;SDS011;5597;47.588;9.642;2023-04-10T07:52:05;2.03;;;1.80;;
11086;SDS011;5597;47.588;9.642;2023-04-10T07:54:31;2.00;;;1.80;;
11086;SDS011;5597;47.588;9.642;2023-04-10T07:56:58;1.97;;;1.77;;
11086;SDS011;5597;47.588;9.642;2023-04-10T07:59:23;1.83;;;1.63;;
11086;SDS011;5597;47.588;9.642;2023-04-10T08:01:49;2.10;;;1.90;;
11086;SDS011;5597;47.588;9.642;2023-04-10T08:04:14;1.93;;;1.73;;
11086;SDS011;5597;47.588;9.642;2023-04-10T08:06:40;2.57;;;1.80;;
11086;SDS011;5597;47.588;9.642;2023-04-10T08:09:06;2.03;;;1.83;;
11086;SDS011;5597;47.588;9.642;2023-04-10T08:11:34;2.37;;;1.77;;
11086;SDS011;5597;47.588;9.642;2023-04-10T08:14:01;1.70;;;1.60;;
11086;SDS011;5597;47.588;9.642;2023-04-10T08:16:28;2.27;;;1.90;;
11086;SDS011;5597;47.588;9.642;2023-04-10T08:18:55;1.90;;;1.80;;
11086;SDS011;5597;47.588;9.642;2023-04-10T08:21:21;2.67;;;2.23;;
11086;SDS011;5597;47.588;9.642;2023-04-10T08:23:55;2.23;;;2.00;;
11086;SDS011;5597;47.588;9.642;2023-04-10T08:26:21;2.27;;;1.80;;
11086;SDS011;5597;47.588;9.642;2023-04-10T08:28:47;1.80;;;1.57;;
11086;SDS011;5597;47.588;9.642;2023-04-10T08:31:15;2.07;;;1.87;;
11086;SDS011;5597;47.588;9.642;2023-04-10T08:33:44;1.90;;;1.73;;
11086;SDS011;5597;47.588;9.642;2023-04-10T08:36:10;2.27;;;1.70;;
11086;SDS011;5597;47.588;9.642;2023-04-10T08:38:37;1.60;;;1.50;;
11086;SDS011;5597;47.588;9.642;2023-04-10T08:41:03;1.90;;;1.70;;
11086;SDS011;5597;47.588;9.642;2023-04-10T08:43:29;1.83;;;1.70;;
11086;SDS011;5597;47.588;9.642;2023-04-10T08:45:55;2.00;;;1.80;;
11086;SDS011;5597;47.588;9.642;2023-04-10T08:48:20;1.77;;;1.67;;
11086;SDS011;5597;47.588;9.642;2023-04-10T08:50:53;2.10;;;1.87;;
11086;SDS011;5597;47.588;9.642;2023-04-10T08:53:23;2.57;;;1.97;;
11086;SDS011;5597;47.588;9.642;2023-04-10T08:55:51;2.00;;;1.87;;
11086;SDS011;5597;47.588;9.642;2023-04-10T08:58:17;2.20;;;2.00;;
11086;SDS011;5597;47.588;9.642;2023-04-10T09:00:44;2.57;;;2.00;;
11086;SDS011;5597;47.588;9.642;2023-04-10T09:03:10;1.90;;;1.70;;
11086;SDS011;5597;47.588;9.642;2023-04-10T09:05:38;1.90;;;1.70;;
11086;SDS011;5597;47.588;9.642;2023-04-10T09:08:03;1.63;;;1.50;;
11086;SDS011;5597;47.588;9.642;2023-04-10T09:10:31;1.70;;;1.60;;
11086;SDS011;5597;47.588;9.642;2023-04-10T09:12:56;2.17;;;1.97;;
11086;SDS011;5597;47.588;9.642;2023-04-10T09:15:22;1.70;;;1.60;;
11086;SDS011;5597;47.588;9.642;2023-04-10T09:18:01;2.00;;;1.60;;
11086;SDS011;5597;47.588;9.642;2023-04-10T09:20:28;2.47;;;1.50;;
11086;SDS011;5597;47.588;9.642;2023-04-10T09:22:55;1.80;;;1.70;;
11086;SDS011;5597;47.588;9.642;2023-04-10T09:25:35;2.00;;;1.80;;
11086;SDS011;5597;47.588;9.642;2023-04-10T09:28:03;1.83;;;1.70;;
11086;SDS011;5597;47.588;9.642;2023-04-10T09:30:35;2.37;;;1.73;;
11086;SDS011;5597;47.588;9.642;2023-04-10T09:33:02;1.50;;;1.40;;
11086;SDS011;5597;47.588;9.642;2023-04-10T09:35:44;1.77;;;1.67;;
11086;SDS011;5597;47.588;9.642;2023-04-10T09:38:14;1.60;;;1.50;;
11086;SDS011;5597;47.588;9.642;2023-04-10T09:40:40;2.10;;;1.90;;
11086;SDS011;5597;47.588;9.642;2023-04-10T09:43:19;1.80;;;1.70;;
11086;SDS011;5597;47.588;9.642;2023-04-10T09:45:53;2.03;;;1.93;;
11086;SDS011;5597;47.588;9.642;2023-04-10T09:48:20;1.87;;;1.77;;
11086;SDS011;5597;47.588;9.642;2023-04-10T09:50:47;2.20;;;2.00;;
11086;SDS011;5597;47.588;9.642;2023-04-10T09:53:14;2.70;;;2.50;;
11086;SDS011;5597;47.588;9.642;2023-04-10T09:55:41;2.23;;;2.03;;
11086;SDS011;5597;47.588;9.642;2023-04-10T09:58:07;2.50;;;2.30;;
11086;SDS011;5597;47.588;9.642;2023-04-10T10:00:40;2.70;;;2.50;;
11086;SDS011;5597;47.588;9.642;2023-04-10T10:03:12;2.60;;;2.40;;
11086;SDS011;5597;47.588;9.642;2023-04-10T10:05:40;2.50;;;2.30;;
11086;SDS011;5597;47.588;9.642;2023-04-10T10:08:10;2.50;;;2.30;;
11086;SDS011;5597;47.588;9.642;2023-04-10T10:10:45;3.13;;;2.83;;
11086;SDS011;5597;47.588;9.642;2023-04-10T10:13:17;3.50;;;3.20;;
11086;SDS011;5597;47.588;9.642;2023-04-10T10:16:30;3.27;;;2.97;;
11086;SDS011;5597;47.588;9.642;2023-04-10T10:18:50;3.73;;;2.80;;
11086;SDS011;5597;47.588;9.642;2023-04-10T10:21:21;3.20;;;2.90;;
11086;SDS011;5597;47.588;9.642;2023-04-10T10:23:48;3.17;;;2.87;;
11086;SDS011;5597;47.588;9.642;2023-04-10T10:26:18;2.87;;;2.67;;
11086;SDS011;5597;47.588;9.642;2023-04-10T10:28:45;3.10;;;2.80;;
11086;SDS011;5597;47.588;9.642;2023-04-10T10:31:12;3.00;;;2.80;;
11086;SDS011;5597;47.588;9.642;2023-04-10T10:33:38;3.00;;;2.70;;
11086;SDS011;5597;47.588;9.642;2023-04-10T10:36:05;3.17;;;2.87;;
11086;SDS011;5597;47.588;9.642;2023-04-10T10:38:32;3.37;;;3.07;;
11086;SDS011;5597;47.588;9.642;2023-04-10T10:41:04;3.23;;;3.00;;
11086;SDS011;5597;47.588;9.642;2023-04-10T10:49:06;3.57;;;3.27;;
11086;SDS011;5597;47.588;9.642;2023-04-10T10:51:45;3.50;;;3.20;;
11086;SDS011;5597;47.588;9.642;2023-04-10T10:54:31;3.17;;;2.87;;
11086;SDS011;5597;47.588;9.642;2023-04-10T10:56:59;3.47;;;3.17;;
11086;SDS011;5597;47.588;9.642;2023-04-10T11:02:14;3.10;;;2.80;;
11086;SDS011;5597;47.588;9.642;2023-04-10T11:04:43;3.10;;;2.80;;
11086;SDS011;5597;47.588;9.642;2023-04-10T11:07:10;2.90;;;2.70;;
11086;SDS011;5597;47.588;9.642;2023-04-10T11:09:47;4.00;;;3.60;;
11086;SDS011;5597;47.588;9.642;2023-04-10T11:12:14;3.30;;;3.00;;
11086;SDS011;5597;47.588;9.642;2023-04-10T11:14:41;3.10;;;2.90;;
11086;SDS011;5597;47.588;9.642;2023-04-10T11:17:08;2.50;;;2.30;;
11086;SDS011;5597;47.588;9.642;2023-04-10T11:19:55;3.37;;;3.07;;
11086;SDS011;5597;47.588;9.642;2023-04-10T11:22:23;3.20;;;3.00;;
11086;SDS011;5597;47.588;9.642;2023-04-10T11:24:56;3.07;;;2.77;;
11086;SDS011;5597;47.588;9.642;2023-04-10T11:30:24;3.70;;;3.40;;
11086;SDS011;5597;47.588;9.642;2023-04-10T11:33:00;3.63;;;3.33;;
11086;SDS011;5597;47.588;9.642;2023-04-10T11:35:26;2.87;;;2.60;;
11086;SDS011;5597;47.588;9.642;2023-04-10T11:38:11;3.03;;;2.77;;
11086;SDS011;5597;47.588;9.642;2023-04-10T11:40:54;3.60;;;3.30;;
11086;SDS011;5597;47.588;9.642;2023-04-10T11:43:31;3.63;;;3.33;;
11086;SDS011;5597;47.588;9.642;2023-04-10T11:46:06;2.97;;;2.67;;
11086;SDS011;5597;47.588;9.642;2023-04-10T11:48:32;3.33;;;3.03;;
11086;SDS011;5597;47.588;9.642;2023-04-10T11:51:05;3.40;;;3.10;;
11086;SDS011;5597;47.588;9.642;2023-04-10T11:53:32;3.07;;;2.70;;
11086;SDS011;5597;47.588;9.642;2023-04-10T11:55:58;3.50;;;3.20;;
11086;SDS011;5597;47.588;9.642;2023-04-10T11:58:24;3.03;;;2.83;;
11086;SDS011;5597;47.588;9.642;2023-04-10T12:01:03;3.03;;;2.73;;
11086;SDS011;5597;47.588;9.642;2023-04-10T12:03:36;2.80;;;2.60;;
11086;SDS011;5597;47.588;9.642;2023-04-10T12:06:04;2.77;;;2.53;;
11086;SDS011;5597;47.588;9.642;2023-04-10T12:08:32;2.97;;;2.77;;
11086;SDS011;5597;47.588;9.642;2023-04-10T12:10:58;3.60;;;2.70;;
11086;SDS011;5597;47.588;9.642;2023-04-10T12:13:25;3.67;;;3.23;;
11086;SDS011;5597;47.588;9.642;2023-04-10T12:15:51;3.30;;;3.00;;
11086;SDS011;5597;47.588;9.642;2023-04-10T12:18:18;2.60;;;2.40;;
11086;SDS011;5597;47.588;9.642;2023-04-10T12:20:45;2.70;;;2.50;;
11086;SDS011;5597;47.588;9.642;2023-04-10T12:23:10;2.83;;;2.37;;
11086;SDS011;5597;47.588;9.642;2023-04-10T12:25:37;2.67;;;2.43;;
11086;SDS011;5597;47.588;9.642;2023-04-10T12:28:03;2.90;;;2.70;;
11086;SDS011;5597;47.588;9.642;2023-04-10T12:30:29;2.63;;;2.43;;
11086;SDS011;5597;47.588;9.642;2023-04-10T12:32:55;2.80;;;2.60;;
11086;SDS011;5597;47.588;9.642;2023-04-10T12:35:36;2.07;;;1.87;;
11086;SDS011;5597;47.588;9.642;2023-04-10T12:38:02;2.00;;;1.73;;
11086;SDS011;5597;47.588;9.642;2023-04-10T12:40:28;2.20;;;2.00;;
11086;SDS011;5597;47.588;9.642;2023-04-10T12:42:53;2.40;;;2.20;;
11086;SDS011;5597;47.588;9.642;2023-04-10T12:45:19;2.00;;;1.90;;
11086;SDS011;5597;47.588;9.642;2023-04-10T12:47:48;1.90;;;1.80;;
11086;SDS011;5597;47.588;9.642;2023-04-10T12:50:17;2.13;;;1.93;;
11086;SDS011;5597;47.588;9.642;2023-04-10T12:52:45;2.00;;;1.90;;
11086;SDS011;5597;47.588;9.642;2023-04-10T12:55:25;1.60;;;1.50;;
11086;SDS011;5597;47.588;9.642;2023-04-10T12:57:52;3.03;;;1.53;;
11086;SDS011;5597;47.588;9.642;2023-04-10T13:00:19;1.50;;;1.40;;
11086;SDS011;5597;47.588;9.642;2023-04-10T13:02:45;1.23;;;1.13;;
11086;SDS011;5597;47.588;9.642;2023-04-10T13:05:12;1.27;;;1.17;;
11086;SDS011;5597;47.588;9.642;2023-04-10T13:07:38;1.37;;;1.27;;
11086;SDS011;5597;47.588;9.642;2023-04-10T13:10:05;1.37;;;1.20;;
11086;SDS011;5597;47.588;9.642;2023-04-10T13:12:31;1.30;;;1.20;;
11086;SDS011;5597;47.588;9.642;2023-04-10T13:14:58;1.23;;;1.07;;
11086;SDS011;5597;47.588;9.642;2023-04-10T13:17:25;1.40;;;1.30;;
11086;SDS011;5597;47.588;9.642;2023-04-10T13:19:51;2.10;;;1.90;;
11086;SDS011;5597;47.588;9.642;2023-04-10T13:22:17;1.77;;;1.53;;
11086;SDS011;5597;47.588;9.642;2023-04-10T13:24:43;1.57;;;1.37;;
11086;SDS011;5597;47.588;9.642;2023-04-10T13:27:09;1.73;;;1.63;;
11086;SDS011;5597;47.588;9.642;2023-04-10T13:29:35;1.73;;;1.63;;
11086;SDS011;5597;47.588;9.642;2023-04-10T13:32:03;1.40;;;1.30;;
11086;SDS011;5597;47.588;9.642;2023-04-10T13:34:33;2.20;;;1.60;;
11086;SDS011;5597;47.588;9.642;2023-04-10T13:36:59;1.57;;;1.47;;
11086;SDS011;5597;47.588;9.642;2023-04-10T13:39:25;1.40;;;1.30;;
11086;SDS011;5597;47.588;9.642;2023-04-10T13:41:52;1.33;;;1.23;;
11086;SDS011;5597;47.588;9.642;2023-04-10T13:44:18;1.20;;;1.10;;
11086;SDS011;5597;47.588;9.642;2023-04-10T13:46:43;1.60;;;1.13;;
11086;SDS011;5597;47.588;9.642;2023-04-10T13:49:09;1.40;;;1.30;;
11086;SDS011;5597;47.588;9.642;2023-04-10T13:51:34;1.30;;;1.20;;
11086;SDS011;5597;47.588;9.642;2023-04-10T13:54:01;1.10;;;1.00;;
11086;SDS011;5597;47.588;9.642;2023-04-10T13:56:28;1.27;;;1.17;;
11086;SDS011;5597;47.588;9.642;2023-04-10T13:58:54;1.10;;;1.00;;
11086;SDS011;5597;47.588;9.642;2023-04-10T14:01:19;1.20;;;1.10;;
11086;SDS011;5597;47.588;9.642;2023-04-10T14:03:45;1.17;;;1.07;;
11086;SDS011;5597;47.588;9.642;2023-04-10T14:06:11;1.37;;;1.27;;
11086;SDS011;5597;47.588;9.642;2023-04-10T14:08:38;1.40;;;1.30;;
11086;SDS011;5597;47.588;9.642;2023-04-10T14:11:03;1.50;;;1.30;;
11086;SDS011;5597;47.588;9.642;2023-04-10T14:13:29;1.50;;;1.40;;
11086;SDS011;5597;47.588;9.642;2023-04-10T14:15:54;1.40;;;1.30;;
11086;SDS011;5597;47.588;9.642;2023-04-10T14:18:20;1.63;;;1.40;;
11086;SDS011;5597;47.588;9.642;2023-04-10T14:20:46;1.63;;;1.53;;
11086;SDS011;5597;47.588;9.642;2023-04-10T14:23:11;1.40;;;1.30;;
11086;SDS011;5597;47.588;9.642;2023-04-10T14:25:42;1.40;;;1.30;;
11086;SDS011;5597;47.588;9.642;2023-04-10T14:28:09;1.70;;;1.60;;
11086;SDS011;5597;47.588;9.642;2023-04-10T14:30:41;1.57;;;1.47;;
11086;SDS011;5597;47.588;9.642;2023-04-10T14:33:13;2.13;;;1.33;;
11086;SDS011;5597;47.588;9.642;2023-04-10T14:35:40;1.70;;;1.40;;
11086;SDS011;5597;47.588;9.642;2023-04-10T14:38:06;1.30;;;1.20;;
11086;SDS011;5597;47.588;9.642;2023-04-10T14:40:31;1.63;;;1.47;;
11086;SDS011;5597;47.588;9.642;2023-04-10T14:42:57;1.77;;;1.30;;
11086;SDS011;5597;47.588;9.642;2023-04-10T14:45:23;1.30;;;1.17;;
11086;SDS011;5597;47.588;9.642;2023-04-10T14:47:49;1.37;;;1.20;;
11086;SDS011;5597;47.588;9.642;2023-04-10T14:50:15;1.50;;;1.17;;
11086;SDS011;5597;47.588;9.642;2023-04-10T14:52:41;1.07;;;0.97;;
11086;SDS011;5597;47.588;9.642;2023-04-10T14:55:07;1.27;;;1.17;;
11086;SDS011;5597;47.588;9.642;2023-04-10T14:57:32;2.03;;;1.30;;
11086;SDS011;5597;47.588;9.642;2023-04-10T14:59:58;1.00;;;0.90;;
11086;SDS011;5597;47.588;9.642;2023-04-10T15:02:25;1.40;;;1.30;;
11086;SDS011;5597;47.588;9.642;2023-04-10T15:04:51;1.27;;;1.17;;
11086;SDS011;5597;47.588;9.642;2023-04-10T15:07:16;1.23;;;1.13;;
11086;SDS011;5597;47.588;9.642;2023-04-10T15:09:42;1.97;;;1.07;;
11086;SDS011;5597;47.588;9.642;2023-04-10T15:12:08;1.30;;;1.20;;
11086;SDS011;5597;47.588;9.642;2023-04-10T15:14:34;1.13;;;1.03;;
11086;SDS011;5597;47.588;9.642;2023-04-10T15:17:00;1.40;;;1.30;;
11086;SDS011;5597;47.588;9.642;2023-04-10T15:19:25;1.20;;;1.10;;
11086;SDS011;5597;47.588;9.642;2023-04-10T15:21:51;1.27;;;1.13;;
11086;SDS011;5597;47.588;9.642;2023-04-10T15:24:18;1.40;;;1.30;;
11086;SDS011;5597;47.588;9.642;2023-04-10T15:26:44;1.13;;;1.07;;
11086;SDS011;5597;47.588;9.642;2023-04-10T15:29:10;1.10;;;1.00;;